Amity, North Carolina
Current Conditions -  °F | °C
As of 9:55 AM on Friday 31 Oct 2014 (Local Time) from KRUQ Reporting Station
Scattered Clouds Scattered Clouds  
Wind Chill: 44°   Ceiling: Unl
Heat Index: 47°   Visibility: 10mi
Dew Point: 38°   Wind: 6mph
Humidity: 70%   Direction: 40°NE
Pressure: 29.97"   Gusts: NA
Location:  35.7427°N, 80.712°W
Report Text: KRUQ 311355Z AUTO 04005KT 10SM SCT024 08/03 A2997 RMK AO2 T00830032
Loading
Personal Weather Stations






























Interactive Weather Map
Tropical Storm Tracking
New forecast layout! Learn more

10-Day Weather Forecast

Advertisements
Track Severe Weather on mobile